sensor_id;sensor_type;location;lat;lon;timestamp;pressure;altitude;pressure_sealevel;temperature;humidity
6899;BME280;3488;42.616;23.350;2023-04-30T00:01:27;62985.13;;;9.57;100.00
6899;BME280;3488;42.616;23.350;2023-04-30T00:03:55;62977.84;;;9.48;100.00
6899;BME280;3488;42.616;23.350;2023-04-30T00:06:23;62972.72;;;9.45;100.00
6899;BME280;3488;42.616;23.350;2023-04-30T00:08:51;62977.81;;;9.45;100.00
6899;BME280;3488;42.616;23.350;2023-04-30T00:11:18;62967.59;;;9.43;100.00
6899;BME280;3488;42.616;23.350;2023-04-30T00:13:45;62978.84;;;9.46;99.77
6899;BME280;3488;42.616;23.350;2023-04-30T00:16:12;62977.84;;;9.48;99.51
6899;BME280;3488;42.616;23.350;2023-04-30T00:18:40;62976.81;;;9.47;99.56
6899;BME280;3488;42.616;23.350;2023-04-30T00:21:07;62969.59;;;9.40;100.00
6899;BME280;3488;42.616;23.350;2023-04-30T00:23:36;62965.44;;;9.35;100.00
6899;BME280;3488;42.616;23.350;2023-04-30T00:26:03;62957.72;;;9.30;100.00
6899;BME280;3488;42.616;23.350;2023-04-30T00:28:30;62948.41;;;9.21;100.00
6899;BME280;3488;42.616;23.350;2023-04-30T00:30:57;62950.00;;;9.23;100.00
6899;BME280;3488;42.616;23.350;2023-04-30T00:33:24;62950.50;;;9.23;100.00
6899;BME280;3488;42.616;23.350;2023-04-30T00:35:53;62952.63;;;9.28;100.00
6899;BME280;3488;42.616;23.350;2023-04-30T00:38:19;62951.53;;;9.24;100.00
6899;BME280;3488;42.616;23.350;2023-04-30T00:40:48;62955.16;;;9.28;100.00
6899;BME280;3488;42.616;23.350;2023-04-30T00:43:16;62957.13;;;9.25;100.00
6899;BME280;3488;42.616;23.350;2023-04-30T00:45:43;62944.25;;;9.15;100.00
6899;BME280;3488;42.616;23.350;2023-04-30T00:48:10;62944.81;;;9.18;100.00
6899;BME280;3488;42.616;23.350;2023-04-30T00:50:37;62947.88;;;9.18;100.00
6899;BME280;3488;42.616;23.350;2023-04-30T00:53:04;62942.69;;;9.13;100.00
6899;BME280;3488;42.616;23.350;2023-04-30T00:55:32;62938.09;;;9.11;100.00
6899;BME280;3488;42.616;23.350;2023-04-30T00:58:01;62933.91;;;9.05;100.00
6899;BME280;3488;42.616;23.350;2023-04-30T01:00:29;62927.72;;;8.99;100.00
6899;BME280;3488;42.616;23.350;2023-04-30T01:02:56;62923.63;;;8.97;100.00
6899;BME280;3488;42.616;23.350;2023-04-30T01:05:24;62924.09;;;8.95;100.00
6899;BME280;3488;42.616;23.350;2023-04-30T01:07:52;62926.69;;;8.98;100.00
6899;BME280;3488;42.616;23.350;2023-04-30T01:10:22;62910.75;;;8.87;100.00
6899;BME280;3488;42.616;23.350;2023-04-30T01:12:55;62917.50;;;8.96;100.00
6899;BME280;3488;42.616;23.350;2023-04-30T01:15:27;62931.84;;;9.03;100.00
6899;BME280;3488;42.616;23.350;2023-04-30T01:18:04;62931.84;;;9.03;100.00
6899;BME280;3488;42.616;23.350;2023-04-30T01:20:34;62924.66;;;8.98;100.00
6899;BME280;3488;42.616;23.350;2023-04-30T01:23:17;62921.03;;;8.95;100.00
6899;BME280;3488;42.616;23.350;2023-04-30T01:25:58;62916.44;;;8.93;100.00
6899;BME280;3488;42.616;23.350;2023-04-30T01:28:35;62915.41;;;8.92;100.00
6899;BME280;3488;42.616;23.350;2023-04-30T01:31:03;62909.66;;;8.84;100.00
6899;BME280;3488;42.616;23.350;2023-04-30T01:33:37;62908.16;;;8.85;100.00
6899;BME280;3488;42.616;23.350;2023-04-30T01:36:20;62914.84;;;8.89;100.00
6899;BME280;3488;42.616;23.350;2023-04-30T01:39:02;62913.19;;;8.82;100.00
6899;BME280;3488;42.616;23.350;2023-04-30T01:41:37;62903.00;;;8.80;100.00
6899;BME280;3488;42.616;23.350;2023-04-30T01:44:16;62906.00;;;8.78;100.00
6899;BME280;3488;42.616;23.350;2023-04-30T01:46:55;62894.69;;;8.69;100.00
6899;BME280;3488;42.616;23.350;2023-04-30T01:49:31;62902.94;;;8.77;100.00
6899;BME280;3488;42.616;23.350;2023-04-30T01:52:17;62886.94;;;8.62;100.00
6899;BME280;3488;42.616;23.350;2023-04-30T01:54:50;62891.06;;;8.66;100.00
6899;BME280;3488;42.616;23.350;2023-04-30T01:57:25;62895.59;;;8.63;100.00
6899;BME280;3488;42.616;23.350;2023-04-30T01:59:55;62885.94;;;8.63;100.00
6899;BME280;3488;42.616;23.350;2023-04-30T02:02:22;62899.19;;;8.66;100.00
6899;BME280;3488;42.616;23.350;2023-04-30T02:04:50;62887.50;;;8.65;100.00
6899;BME280;3488;42.616;23.350;2023-04-30T02:07:28;62883.88;;;8.61;100.00
6899;BME280;3488;42.616;23.350;2023-04-30T02:10:02;62882.84;;;8.60;100.00
6899;BME280;3488;42.616;23.350;2023-04-30T02:12:29;62900.84;;;8.73;100.00
6899;BME280;3488;42.616;23.350;2023-04-30T02:14:57;62898.88;;;8.76;100.00
6899;BME280;3488;42.616;23.350;2023-04-30T02:17:26;62902.91;;;8.75;100.00
6899;BME280;3488;42.616;23.350;2023-04-30T02:19:53;62905.50;;;8.77;100.00
6899;BME280;3488;42.616;23.350;2023-04-30T02:22:21;62917.28;;;8.84;100.00
6899;BME280;3488;42.616;23.350;2023-04-30T02:24:48;62910.19;;;8.84;100.00
6899;BME280;3488;42.616;23.350;2023-04-30T02:27:15;62912.19;;;8.84;100.00
6899;BME280;3488;42.616;23.350;2023-04-30T02:29:43;62902.44;;;8.77;100.00
6899;BME280;3488;42.616;23.350;2023-04-30T02:32:12;62898.91;;;8.78;100.00
6899;BME280;3488;42.616;23.350;2023-04-30T02:34:40;62896.75;;;8.71;100.00
6899;BME280;3488;42.616;23.350;2023-04-30T02:37:07;62895.25;;;8.72;100.00
6899;BME280;3488;42.616;23.350;2023-04-30T02:39:34;62898.81;;;8.73;100.00
6899;BME280;3488;42.616;23.350;2023-04-30T02:42:01;62897.31;;;8.74;100.00
6899;BME280;3488;42.616;23.350;2023-04-30T02:44:29;62900.88;;;8.75;100.00
6899;BME280;3488;42.616;23.350;2023-04-30T02:46:56;62904.56;;;8.81;100.00
6899;BME280;3488;42.616;23.350;2023-04-30T02:49:24;62917.88;;;8.89;100.00
6899;BME280;3488;42.616;23.350;2023-04-30T02:51:53;62921.00;;;8.92;100.00
6899;BME280;3488;42.616;23.350;2023-04-30T02:54:20;62927.75;;;9.01;100.00
6899;BME280;3488;42.616;23.350;2023-04-30T02:56:47;62932.41;;;9.06;100.00
6899;BME280;3488;42.616;23.350;2023-04-30T02:59:14;62945.31;;;9.18;100.00
6899;BME280;3488;42.616;23.350;2023-04-30T03:01:41;62953.09;;;9.26;100.00
6899;BME280;3488;42.616;23.350;2023-04-30T03:04:08;62959.78;;;9.30;100.00
6899;BME280;3488;42.616;23.350;2023-04-30T03:06:37;62963.88;;;9.34;100.00
6899;BME280;3488;42.616;23.350;2023-04-30T03:09:04;62964.97;;;9.38;100.00
6899;BME280;3488;42.616;23.350;2023-04-30T03:11:31;62970.13;;;9.43;100.00
6899;BME280;3488;42.616;23.350;2023-04-30T03:14:02;62976.28;;;9.46;100.00
6899;BME280;3488;42.616;23.350;2023-04-30T03:16:29;62960.84;;;9.33;100.00
6899;BME280;3488;42.616;23.350;2023-04-30T03:18:56;62971.69;;;9.44;100.00
6899;BME280;3488;42.616;23.350;2023-04-30T03:21:23;62975.81;;;9.48;100.00
6899;BME280;3488;42.616;23.350;2023-04-30T03:23:53;62984.66;;;9.59;100.00
6899;BME280;3488;42.616;23.350;2023-04-30T03:26:20;62994.44;;;9.66;100.00
6899;BME280;3488;42.616;23.350;2023-04-30T03:28:47;62995.53;;;9.70;100.00
6899;BME280;3488;42.616;23.350;2023-04-30T03:31:14;63008.41;;;9.80;100.00
6899;BME280;3488;42.616;23.350;2023-04-30T03:33:43;63014.09;;;9.85;100.00
6899;BME280;3488;42.616;23.350;2023-04-30T03:36:10;63027.50;;;9.96;100.00
6899;BME280;3488;42.616;23.350;2023-04-30T03:38:37;63027.50;;;9.96;100.00
6899;BME280;3488;42.616;23.350;2023-04-30T03:41:06;63029.63;;;10.00;100.00
6899;BME280;3488;42.616;23.350;2023-04-30T03:43:33;63039.41;;;10.07;100.00
6899;BME280;3488;42.616;23.350;2023-04-30T03:46:00;63049.25;;;10.17;100.00
6899;BME280;3488;42.616;23.350;2023-04-30T03:48:28;63056.53;;;10.26;100.00
6899;BME280;3488;42.616;23.350;2023-04-30T03:50:55;63059.63;;;10.29;100.00
6899;BME280;3488;42.616;23.350;2023-04-30T03:53:22;63068.44;;;10.38;100.00
6899;BME280;3488;42.616;23.350;2023-04-30T03:55:51;63067.41;;;10.37;100.00
6899;BME280;3488;42.616;23.350;2023-04-30T03:58:20;63069.94;;;10.37;100.00
6899;BME280;3488;42.616;23.350;2023-04-30T04:00:48;63071.03;;;10.40;100.00
6899;BME280;3488;42.616;23.350;2023-04-30T04:03:16;63078.25;;;10.47;100.00
6899;BME280;3488;42.616;23.350;2023-04-30T04:05:43;63070.06;;;10.44;100.00
6899;BME280;3488;42.616;23.350;2023-04-30T04:08:10;63074.69;;;10.46;100.00
6899;BME280;3488;42.616;23.350;2023-04-30T04:10:38;63072.50;;;10.37;100.00
6899;BME280;3488;42.616;23.350;2023-04-30T04:13:06;63088.00;;;10.52;100.00
6899;BME280;3488;42.616;23.350;2023-04-30T04:15:35;63095.34;;;10.64;100.00
6899;BME280;3488;42.616;23.350;2023-04-30T04:18:02;63085.00;;;10.54;100.00
6899;BME280;3488;42.616;23.350;2023-04-30T04:20:31;63099.91;;;10.64;100.00
6899;BME280;3488;42.616;23.350;2023-04-30T04:22:58;63116.47;;;10.80;100.00
6899;BME280;3488;42.616;23.350;2023-04-30T04:25:26;63115.00;;;10.83;100.00
6899;BME280;3488;42.616;23.350;2023-04-30T04:27:56;63114.47;;;10.83;100.00
6899;BME280;3488;42.616;23.350;2023-04-30T04:30:24;63089.69;;;10.61;100.00
6899;BME280;3488;42.616;23.350;2023-04-30T04:32:55;63094.81;;;10.64;100.00
6899;BME280;3488;42.616;23.350;2023-04-30T04:35:22;63104.13;;;10.73;100.00
6899;BME280;3488;42.616;23.350;2023-04-30T04:37:49;63112.34;;;10.76;100.00
6899;BME280;3488;42.616;23.350;2023-04-30T04:40:16;63108.22;;;10.74;100.00
6899;BME280;3488;42.616;23.350;2023-04-30T04:42:43;63098.91;;;10.65;100.00
6899;BME280;3488;42.616;23.350;2023-04-30T04:45:11;63105.63;;;10.72;100.00
6899;BME280;3488;42.616;23.350;2023-04-30T04:47:40;63112.94;;;10.81;100.00
6899;BME280;3488;42.616;23.350;2023-04-30T04:50:09;63118.09;;;10.86;100.00
6899;BME280;3488;42.616;23.350;2023-04-30T04:52:37;63125.41;;;10.96;100.00
6899;BME280;3488;42.616;23.350;2023-04-30T04:55:05;63124.84;;;10.93;100.00
6899;BME280;3488;42.616;23.350;2023-04-30T04:57:33;63142.44;;;11.10;100.00
6899;BME280;3488;42.616;23.350;2023-04-30T05:00:00;63135.16;;;11.00;100.00
6899;BME280;3488;42.616;23.350;2023-04-30T05:02:28;63139.31;;;11.04;100.00
6899;BME280;3488;42.616;23.350;2023-04-30T05:04:55;63139.78;;;11.02;100.00
6899;BME280;3488;42.616;23.350;2023-04-30T05:07:23;63136.75;;;11.04;100.00
6899;BME280;3488;42.616;23.350;2023-04-30T05:09:51;63140.38;;;11.08;100.00
6899;BME280;3488;42.616;23.350;2023-04-30T05:12:18;63148.66;;;11.16;100.00
6899;BME280;3488;42.616;23.350;2023-04-30T05:14:45;63158.50;;;11.25;100.00
6899;BME280;3488;42.616;23.350;2023-04-30T05:17:13;63151.81;;;11.21;100.00
6899;BME280;3488;42.616;23.350;2023-04-30T05:19:42;63162.13;;;11.29;100.00
6899;BME280;3488;42.616;23.350;2023-04-30T05:22:11;63165.25;;;11.34;100.00
6899;BME280;3488;42.616;23.350;2023-04-30T05:24:40;63172.00;;;11.41;100.00
6899;BME280;3488;42.616;23.350;2023-04-30T05:27:07;63177.66;;;11.44;100.00
6899;BME280;3488;42.616;23.350;2023-04-30T05:29:35;63197.22;;;11.55;100.00
6899;BME280;3488;42.616;23.350;2023-04-30T05:32:02;63197.31;;;11.60;100.00
6899;BME280;3488;42.616;23.350;2023-04-30T05:34:31;63189.56;;;11.55;100.00
6899;BME280;3488;42.616;23.350;2023-04-30T05:36:58;63210.81;;;11.76;100.00
6899;BME280;3488;42.616;23.350;2023-04-30T05:39:26;63213.00;;;11.86;99.66
6899;BME280;3488;42.616;23.350;2023-04-30T05:41:54;63219.09;;;11.84;99.03
6899;BME280;3488;42.616;23.350;2023-04-30T05:44:22;63202.03;;;11.68;100.00
6899;BME280;3488;42.616;23.350;2023-04-30T05:46:50;63210.28;;;11.73;100.00
6899;BME280;3488;42.616;23.350;2023-04-30T05:49:17;63215.53;;;11.83;99.08
6899;BME280;3488;42.616;23.350;2023-04-30T05:51:44;63224.28;;;11.89;100.00
6899;BME280;3488;42.616;23.350;2023-04-30T05:54:11;63245.47;;;12.05;99.28
6899;BME280;3488;42.616;23.350;2023-04-30T05:56:39;63254.84;;;12.16;97.61
6899;BME280;3488;42.616;23.350;2023-04-30T05:59:08;63255.34;;;12.17;95.91
6899;BME280;3488;42.616;23.350;2023-04-30T06:01:35;63262.13;;;12.26;95.25
6899;BME280;3488;42.616;23.350;2023-04-30T06:04:02;63290.06;;;12.50;94.20
6899;BME280;3488;42.616;23.350;2023-04-30T06:06:30;63304.63;;;12.67;92.99
6899;BME280;3488;42.616;23.350;2023-04-30T06:08:57;63309.31;;;12.74;92.13
6899;BME280;3488;42.616;23.350;2023-04-30T06:11:24;63328.97;;;12.88;90.52
6899;BME280;3488;42.616;23.350;2023-04-30T06:13:52;63344.09;;;13.08;89.77
6899;BME280;3488;42.616;23.350;2023-04-30T06:16:22;63363.75;;;13.22;87.52
6899;BME280;3488;42.616;23.350;2023-04-30T06:18:49;63372.03;;;13.30;86.52
6899;BME280;3488;42.616;23.350;2023-04-30T06:21:16;63365.84;;;13.26;87.89
6899;BME280;3488;42.616;23.350;2023-04-30T06:23:45;63379.31;;;13.37;84.57
6899;BME280;3488;42.616;23.350;2023-04-30T06:26:12;63364.28;;;13.25;85.54
6899;BME280;3488;42.616;23.350;2023-04-30T06:28:39;63370.56;;;13.33;83.85
6899;BME280;3488;42.616;23.350;2023-04-30T06:31:06;63351.38;;;13.15;82.77
6899;BME280;3488;42.616;23.350;2023-04-30T06:33:36;63341.97;;;13.03;84.72
6899;BME280;3488;42.616;23.350;2023-04-30T06:36:04;63392.34;;;13.54;82.72
6899;BME280;3488;42.616;23.350;2023-04-30T06:38:31;63422.41;;;13.81;80.45
6899;BME280;3488;42.616;23.350;2023-04-30T06:40:58;63403.72;;;13.63;80.12
6899;BME280;3488;42.616;23.350;2023-04-30T06:43:25;63404.72;;;13.61;79.78
6899;BME280;3488;42.616;23.350;2023-04-30T06:45:52;63361.19;;;13.22;79.65
6899;BME280;3488;42.616;23.350;2023-04-30T06:48:20;63347.22;;;13.13;81.29
6899;BME280;3488;42.616;23.350;2023-04-30T06:50:49;63329.97;;;12.87;82.82
6899;BME280;3488;42.616;23.350;2023-04-30T06:53:16;63313.41;;;12.73;84.34
6899;BME280;3488;42.616;23.350;2023-04-30T06:55:45;63312.41;;;12.74;85.81
6899;BME280;3488;42.616;23.350;2023-04-30T06:58:12;63333.13;;;12.92;84.04
6899;BME280;3488;42.616;23.350;2023-04-30T07:00:39;63362.66;;;13.18;83.74
6899;BME280;3488;42.616;23.350;2023-04-30T07:03:06;63430.16;;;13.86;76.90
6899;BME280;3488;42.616;23.350;2023-04-30T07:05:33;63432.22;;;13.88;74.68
6899;BME280;3488;42.616;23.350;2023-04-30T07:08:03;63452.47;;;14.08;75.11
6899;BME280;3488;42.616;23.350;2023-04-30T07:10:30;63436.41;;;13.94;75.93
6899;BME280;3488;42.616;23.350;2023-04-30T07:12:57;63422.81;;;13.74;79.89
6899;BME280;3488;42.616;23.350;2023-04-30T07:15:25;63412.06;;;13.73;78.17
6899;BME280;3488;42.616;23.350;2023-04-30T07:17:55;63431.25;;;13.92;75.77
6899;BME280;3488;42.616;23.350;2023-04-30T07:20:22;63445.72;;;14.01;77.41
6899;BME280;3488;42.616;23.350;2023-04-30T07:22:50;63436.41;;;13.94;77.70
6899;BME280;3488;42.616;23.350;2023-04-30T07:25:19;63426.56;;;13.85;77.13
6899;BME280;3488;42.616;23.350;2023-04-30T07:27:46;63400.59;;;13.60;78.48
6899;BME280;3488;42.616;23.350;2023-04-30T07:30:15;63401.09;;;13.58;80.20
6899;BME280;3488;42.616;23.350;2023-04-30T07:32:41;63416.19;;;13.75;79.56
6899;BME280;3488;42.616;23.350;2023-04-30T07:35:09;63413.13;;;13.77;77.88
6899;BME280;3488;42.616;23.350;2023-04-30T07:37:36;63450.41;;;14.06;76.46
6899;BME280;3488;42.616;23.350;2023-04-30T07:40:03;63449.44;;;14.10;72.89
6899;BME280;3488;42.616;23.350;2023-04-30T07:42:33;63449.91;;;14.08;74.26
6899;BME280;3488;42.616;23.350;2023-04-30T07:45:01;63449.38;;;14.05;74.03
6899;BME280;3488;42.616;23.350;2023-04-30T07:47:28;63418.69;;;13.72;74.55
6899;BME280;3488;42.616;23.350;2023-04-30T07:49:55;63419.75;;;13.76;75.56
6899;BME280;3488;42.616;23.350;2023-04-30T07:52:23;63418.25;;;13.77;75.78
6899;BME280;3488;42.616;23.350;2023-04-30T07:54:50;63417.72;;;13.76;75.68
6899;BME280;3488;42.616;23.350;2023-04-30T07:57:17;63458.75;;;14.16;72.65
6899;BME280;3488;42.616;23.350;2023-04-30T07:59:46;63458.69;;;14.14;72.74
6899;BME280;3488;42.616;23.350;2023-04-30T08:02:13;63453.53;;;14.11;72.69
6899;BME280;3488;42.616;23.350;2023-04-30T08:04:41;63460.81;;;14.18;71.31
6899;BME280;3488;42.616;23.350;2023-04-30T08:07:08;63477.94;;;14.32;69.80
6899;BME280;3488;42.616;23.350;2023-04-30T08:09:36;63517.38;;;14.68;67.58
6899;BME280;3488;42.616;23.350;2023-04-30T08:12:04;63515.34;;;14.71;67.38
6899;BME280;3488;42.616;23.350;2023-04-30T08:14:31;63525.66;;;14.76;67.88
6899;BME280;3488;42.616;23.350;2023-04-30T08:17:00;63554.22;;;15.01;66.82
6899;BME280;3488;42.616;23.350;2023-04-30T08:19:27;63567.25;;;15.19;64.08
6899;BME280;3488;42.616;23.350;2023-04-30T08:21:55;63563.66;;;15.18;62.36
6899;BME280;3488;42.616;23.350;2023-04-30T08:24:22;63560.50;;;15.12;62.60
6899;BME280;3488;42.616;23.350;2023-04-30T08:26:49;63588.09;;;15.41;62.32
6899;BME280;3488;42.616;23.350;2023-04-30T08:29:17;63608.38;;;15.61;60.23
6899;BME280;3488;42.616;23.350;2023-04-30T08:31:44;63558.47;;;15.13;61.34
6899;BME280;3488;42.616;23.350;2023-04-30T08:34:13;63585.50;;;15.39;60.05
6899;BME280;3488;42.616;23.350;2023-04-30T08:36:41;63551.75;;;15.08;61.21
6899;BME280;3488;42.616;23.350;2023-04-30T08:39:08;63521.53;;;14.74;59.18
6899;BME280;3488;42.616;23.350;2023-04-30T08:41:36;63497.16;;;14.51;60.36
6899;BME280;3488;42.616;23.350;2023-04-30T08:44:05;63515.88;;;14.71;59.96
6899;BME280;3488;42.616;23.350;2023-04-30T08:46:33;63554.28;;;15.06;58.96
6899;BME280;3488;42.616;23.350;2023-04-30T08:49:02;63603.66;;;15.54;56.13
6899;BME280;3488;42.616;23.350;2023-04-30T08:51:32;63627.66;;;15.82;55.51
6899;BME280;3488;42.616;23.350;2023-04-30T08:54:00;63596.44;;;15.49;57.00
6899;BME280;3488;42.616;23.350;2023-04-30T08:56:27;63587.59;;;15.41;56.90
6899;BME280;3488;42.616;23.350;2023-04-30T08:58:56;63625.97;;;15.73;57.83
6899;BME280;3488;42.616;23.350;2023-04-30T09:01:23;63615.66;;;15.68;58.36
6899;BME280;3488;42.616;23.350;2023-04-30T09:03:51;63629.69;;;15.81;55.06
6899;BME280;3488;42.616;23.350;2023-04-30T09:06:18;63613.56;;;15.66;55.62
6899;BME280;3488;42.616;23.350;2023-04-30T09:08:48;63590.72;;;15.46;54.82
6899;BME280;3488;42.616;23.350;2023-04-30T09:11:21;63622.41;;;15.74;55.57
6899;BME280;3488;42.616;23.350;2023-04-30T09:13:49;63638.53;;;15.90;55.71
6899;BME280;3488;42.616;23.350;2023-04-30T09:16:17;63659.34;;;16.10;54.24
6899;BME280;3488;42.616;23.350;2023-04-30T09:18:45;63682.72;;;16.33;54.35
6899;BME280;3488;42.616;23.350;2023-04-30T09:21:12;63697.31;;;16.47;53.10
6899;BME280;3488;42.616;23.350;2023-04-30T09:23:55;63680.16;;;16.33;53.46
6899;BME280;3488;42.616;23.350;2023-04-30T09:26:26;63711.34;;;16.60;52.71
6899;BME280;3488;42.616;23.350;2023-04-30T09:28:54;63720.69;;;16.67;52.56
6899;BME280;3488;42.616;23.350;2023-04-30T09:31:22;63721.75;;;16.70;52.55
6899;BME280;3488;42.616;23.350;2023-04-30T09:33:51;63719.19;;;16.70;53.18
6899;BME280;3488;42.616;23.350;2023-04-30T09:36:18;63704.59;;;16.54;51.38
6899;BME280;3488;42.616;23.350;2023-04-30T09:38:46;63690.00;;;16.40;52.50
6899;BME280;3488;42.616;23.350;2023-04-30T09:41:25;63704.03;;;16.51;52.93
6899;BME280;3488;42.616;23.350;2023-04-30T09:43:52;63734.16;;;16.75;50.91
6899;BME280;3488;42.616;23.350;2023-04-30T09:46:20;63744.66;;;16.92;50.74
6899;BME280;3488;42.616;23.350;2023-04-30T09:48:56;63782.13;;;17.28;48.06
6899;BME280;3488;42.616;23.350;2023-04-30T09:51:24;63751.34;;;16.94;49.42
6899;BME280;3488;42.616;23.350;2023-04-30T09:53:54;63768.53;;;17.10;50.40
6899;BME280;3488;42.616;23.350;2023-04-30T09:56:24;63781.53;;;17.23;47.01
6899;BME280;3488;42.616;23.350;2023-04-30T09:58:54;63765.44;;;17.10;47.33
6899;BME280;3488;42.616;23.350;2023-04-30T10:01:25;63743.09;;;16.93;49.49
6899;BME280;3488;42.616;23.350;2023-04-30T10:03:53;63754.03;;;17.01;48.39
6899;BME280;3488;42.616;23.350;2023-04-30T10:06:20;63760.25;;;17.05;48.84
6899;BME280;3488;42.616;23.350;2023-04-30T10:08:52;63745.16;;;16.93;48.07
6899;BME280;3488;42.616;23.350;2023-04-30T10:11:29;63756.63;;;17.04;48.82
6899;BME280;3488;42.616;23.350;2023-04-30T10:13:59;63761.28;;;17.06;49.82
6899;BME280;3488;42.616;23.350;2023-04-30T10:16:35;63767.53;;;17.14;49.91
6899;BME280;3488;42.616;23.350;2023-04-30T10:19:11;63802.41;;;17.46;48.86
6899;BME280;3488;42.616;23.350;2023-04-30T10:21:40;63808.66;;;17.52;48.07
6899;BME280;3488;42.616;23.350;2023-04-30T10:24:08;63837.31;;;17.82;45.83
6899;BME280;3488;42.616;23.350;2023-04-30T10:26:38;63820.13;;;17.63;47.22
6899;BME280;3488;42.616;23.350;2023-04-30T10:29:06;63826.38;;;17.71;45.96
6899;BME280;3488;42.616;23.350;2023-04-30T10:31:34;63777.44;;;17.24;47.39
6899;BME280;3488;42.616;23.350;2023-04-30T10:34:12;63775.91;;;17.25;48.74
6899;BME280;3488;42.616;23.350;2023-04-30T10:36:43;63739.41;;;16.85;50.41
6899;BME280;3488;42.616;23.350;2023-04-30T10:39:14;63681.66;;;16.29;52.61
6899;BME280;3488;42.616;23.350;2023-04-30T10:41:45;63635.94;;;15.87;54.11
6899;BME280;3488;42.616;23.350;2023-04-30T10:44:14;63587.63;;;15.43;55.78
6899;BME280;3488;42.616;23.350;2023-04-30T10:46:41;63513.72;;;14.64;77.53
6899;BME280;3488;42.616;23.350;2023-04-30T10:49:10;63419.28;;;13.78;89.59
6899;BME280;3488;42.616;23.350;2023-04-30T10:51:49;63347.16;;;13.08;100.00
6899;BME280;3488;42.616;23.350;2023-04-30T10:54:24;63309.84;;;12.74;100.00
6899;BME280;3488;42.616;23.350;2023-04-30T10:56:54;63308.25;;;12.70;100.00
6899;BME280;3488;42.616;23.350;2023-04-30T10:59:36;63326.84;;;12.84;100.00
6899;BME280;3488;42.616;23.350;2023-04-30T11:02:03;63339.88;;;13.01;100.00
6899;BME280;3488;42.616;23.350;2023-04-30T11:04:31;63363.69;;;13.19;100.00
6899;BME280;3488;42.616;23.350;2023-04-30T11:07:06;63396.94;;;13.54;100.00
6899;BME280;3488;42.616;23.350;2023-04-30T11:09:39;63410.47;;;13.69;100.00
6899;BME280;3488;42.616;23.350;2023-04-30T11:12:12;63444.16;;;14.00;100.00
6899;BME280;3488;42.616;23.350;2023-04-30T11:14:41;63480.53;;;14.35;100.00
6899;BME280;3488;42.616;23.350;2023-04-30T11:17:10;63508.63;;;14.67;100.00
6899;BME280;3488;42.616;23.350;2023-04-30T11:19:47;63554.84;;;15.09;100.00
6899;BME280;3488;42.616;23.350;2023-04-30T11:22:15;63589.09;;;15.40;94.91
6899;BME280;3488;42.616;23.350;2023-04-30T11:24:53;63625.00;;;15.77;89.49
6899;BME280;3488;42.616;23.350;2023-04-30T11:27:23;63662.94;;;16.11;89.45
6899;BME280;3488;42.616;23.350;2023-04-30T11:29:52;63686.88;;;16.34;80.18
6899;BME280;3488;42.616;23.350;2023-04-30T11:32:20;63658.75;;;16.04;68.04
6899;BME280;3488;42.616;23.350;2023-04-30T11:34:48;63666.56;;;16.14;63.58
6899;BME280;3488;42.616;23.350;2023-04-30T11:37:19;63663.94;;;16.09;70.86
6899;BME280;3488;42.616;23.350;2023-04-30T11:39:47;63653.56;;;16.02;69.10
6899;BME280;3488;42.616;23.350;2023-04-30T11:42:18;63662.44;;;16.13;75.21
6899;BME280;3488;42.616;23.350;2023-04-30T11:44:47;63665.56;;;16.16;66.59
6899;BME280;3488;42.616;23.350;2023-04-30T11:47:14;63667.66;;;16.18;69.01
6899;BME280;3488;42.616;23.350;2023-04-30T11:49:42;63676.44;;;16.24;63.55
6899;BME280;3488;42.616;23.350;2023-04-30T11:52:11;63687.91;;;16.38;68.16
6899;BME280;3488;42.616;23.350;2023-04-30T11:54:39;63717.56;;;16.64;69.01
6899;BME280;3488;42.616;23.350;2023-04-30T11:57:06;63723.81;;;16.72;66.43
6899;BME280;3488;42.616;23.350;2023-04-30T11:59:39;63732.72;;;16.83;63.24
6899;BME280;3488;42.616;23.350;2023-04-30T12:02:08;63772.78;;;17.22;60.23
6899;BME280;3488;42.616;23.350;2023-04-30T12:04:35;63779.50;;;17.26;62.04
6899;BME280;3488;42.616;23.350;2023-04-30T12:07:02;63767.50;;;17.12;62.83
6899;BME280;3488;42.616;23.350;2023-04-30T12:09:29;63784.16;;;17.25;64.26
6899;BME280;3488;42.616;23.350;2023-04-30T12:11:56;63787.31;;;17.33;62.11
6899;BME280;3488;42.616;23.350;2023-04-30T12:14:26;63795.63;;;17.39;63.03
6899;BME280;3488;42.616;23.350;2023-04-30T12:16:58;63802.44;;;17.48;61.80
6899;BME280;3488;42.616;23.350;2023-04-30T12:19:27;63800.38;;;17.46;61.73
6899;BME280;3488;42.616;23.350;2023-04-30T12:21:54;63799.81;;;17.46;59.56
6899;BME280;3488;42.616;23.350;2023-04-30T12:24:26;63782.59;;;17.26;59.93
6899;BME280;3488;42.616;23.350;2023-04-30T12:26:53;63797.72;;;17.41;59.62
6899;BME280;3488;42.616;23.350;2023-04-30T12:29:21;63792.50;;;17.36;59.55
6899;BME280;3488;42.616;23.350;2023-04-30T12:31:49;63733.19;;;16.81;60.99
6899;BME280;3488;42.616;23.350;2023-04-30T12:34:16;63724.84;;;16.71;63.84
6899;BME280;3488;42.616;23.350;2023-04-30T12:36:45;63679.13;;;16.32;64.14
6899;BME280;3488;42.616;23.350;2023-04-30T12:39:13;63662.44;;;16.13;66.02
6899;BME280;3488;42.616;23.350;2023-04-30T12:41:42;63673.38;;;16.24;66.55
6899;BME280;3488;42.616;23.350;2023-04-30T12:44:13;63675.44;;;16.26;66.78
6899;BME280;3488;42.616;23.350;2023-04-30T12:46:40;63661.91;;;16.10;67.42
6899;BME280;3488;42.616;23.350;2023-04-30T12:49:07;63623.47;;;15.75;68.64
6899;BME280;3488;42.616;23.350;2023-04-30T12:51:36;63626.03;;;15.78;70.66
6899;BME280;3488;42.616;23.350;2023-04-30T12:54:06;63632.84;;;15.87;70.18
6899;BME280;3488;42.616;23.350;2023-04-30T12:56:33;63644.25;;;15.98;70.83
6899;BME280;3488;42.616;23.350;2023-04-30T12:59:01;63688.44;;;16.38;69.19
6899;BME280;3488;42.616;23.350;2023-04-30T13:01:28;63710.84;;;16.60;67.16
6899;BME280;3488;42.616;23.350;2023-04-30T13:03:55;63728.53;;;16.77;66.25
6899;BME280;3488;42.616;23.350;2023-04-30T13:06:23;63754.03;;;17.01;68.00
6899;BME280;3488;42.616;23.350;2023-04-30T13:08:50;63716.53;;;16.63;68.08
6899;BME280;3488;42.616;23.350;2023-04-30T13:11:18;63721.25;;;16.70;69.01
6899;BME280;3488;42.616;23.350;2023-04-30T13:13:46;63792.50;;;17.36;67.44
6899;BME280;3488;42.616;23.350;2023-04-30T13:16:13;63831.53;;;17.71;63.54
6899;BME280;3488;42.616;23.350;2023-04-30T13:18:41;63855.03;;;17.99;62.59